Hlavní strana
METAR-TAF:

METAR-TAF

Letiště :

Hasvik, Norsko

zeměpisná šířka: 70-29N, zeměpisná délka: 022-09E, výška: 10 m

Aktuální stav počasí

Zpráva byla vytvořena před 26 minutami, v 06:20 UTC
Západní vítr 5 kt
Teplota 6°C
Vlhkost vzduchu 100%
Tlak 1002 hPa
Viditelnost 10 km a více
Oblačno až skoro zataženo ve výšce 800 ft
slabý déšť

METAR: ENHK 130620Z 27005KT 9999 -RA BKN008 06/06 Q1002

Čas: 07:46 (06:46 UTC)


TAF: chybějící

Stav a předpovědi počasí z více než 4 000 letišť (zprávy METAR a TAF).

Červené a žluté tečky na mapě představují dostupné meteorologické stanice.

Když kurzor umístíte na tečku, zobrazí se název stanice.

Pak kliknutím zobrazíte stav a předpověď počasí.

Chcete-li změnit mapu, kliknutím na zelené tlačítko se znaménkem +mapu přiblížíte, kliknutím na zelené tlačítko se znaménkem – mapu oddálíte a kliknutím na zelené šipky přejdete na sousední mapy.


METAR-TAF: